sensor_id;sensor_type;location;lat;lon;timestamp;temperature;humidity
19868;DHT22;10096;51.112;6.776;2023-07-02T00:00:03;18.40;22.00
19868;DHT22;10096;51.112;6.776;2023-07-02T00:02:32;18.50;12.20
19868;DHT22;10096;51.112;6.776;2023-07-02T00:04:59;18.50;10.30
19868;DHT22;10096;51.112;6.776;2023-07-02T00:07:27;18.50;1.00
19868;DHT22;10096;51.112;6.776;2023-07-02T00:09:54;18.50;1.00
19868;DHT22;10096;51.112;6.776;2023-07-02T00:12:21;18.40;1.00
19868;DHT22;10096;51.112;6.776;2023-07-02T00:14:48;18.10;1.00
19868;DHT22;10096;51.112;6.776;2023-07-02T00:17:18;18.40;1.00
19868;DHT22;10096;51.112;6.776;2023-07-02T00:19:47;18.40;1.00
19868;DHT22;10096;51.112;6.776;2023-07-02T00:22:17;18.30;1.00
19868;DHT22;10096;51.112;6.776;2023-07-02T00:24:44;18.20;1.00
19868;DHT22;10096;51.112;6.776;2023-07-02T00:27:11;18.20;1.00
19868;DHT22;10096;51.112;6.776;2023-07-02T00:29:39;18.30;1.00
19868;DHT22;10096;51.112;6.776;2023-07-02T00:32:06;18.30;1.00
19868;DHT22;10096;51.112;6.776;2023-07-02T00:34:33;18.20;1.00
19868;DHT22;10096;51.112;6.776;2023-07-02T00:37:02;18.40;1.00
19868;DHT22;10096;51.112;6.776;2023-07-02T00:39:29;18.20;1.00
19868;DHT22;10096;51.112;6.776;2023-07-02T00:42:00;18.10;1.00
19868;DHT22;10096;51.112;6.776;2023-07-02T00:44:29;18.40;1.00
19868;DHT22;10096;51.112;6.776;2023-07-02T00:46:57;18.20;1.00
19868;DHT22;10096;51.112;6.776;2023-07-02T00:49:24;17.90;1.00
19868;DHT22;10096;51.112;6.776;2023-07-02T00:51:52;18.20;1.00
19868;DHT22;10096;51.112;6.776;2023-07-02T00:54:21;18.10;1.00
19868;DHT22;10096;51.112;6.776;2023-07-02T00:56:48;18.10;1.00
19868;DHT22;10096;51.112;6.776;2023-07-02T00:59:16;18.20;1.00
19868;DHT22;10096;51.112;6.776;2023-07-02T01:01:46;18.30;1.00
19868;DHT22;10096;51.112;6.776;2023-07-02T01:04:18;18.10;1.00
19868;DHT22;10096;51.112;6.776;2023-07-02T01:06:45;18.10;1.00
19868;DHT22;10096;51.112;6.776;2023-07-02T01:09:12;18.00;1.00
19868;DHT22;10096;51.112;6.776;2023-07-02T01:11:43;18.10;1.00
19868;DHT22;10096;51.112;6.776;2023-07-02T01:14:14;17.90;1.00
19868;DHT22;10096;51.112;6.776;2023-07-02T01:16:43;17.80;1.00
19868;DHT22;10096;51.112;6.776;2023-07-02T01:19:13;17.90;1.00
19868;DHT22;10096;51.112;6.776;2023-07-02T01:21:46;17.80;1.00
19868;DHT22;10096;51.112;6.776;2023-07-02T01:24:17;17.80;1.00
19868;DHT22;10096;51.112;6.776;2023-07-02T01:26:46;17.90;1.00
19868;DHT22;10096;51.112;6.776;2023-07-02T01:29:18;18.10;1.00
19868;DHT22;10096;51.112;6.776;2023-07-02T01:31:46;17.70;1.00
19868;DHT22;10096;51.112;6.776;2023-07-02T01:34:16;17.80;1.00
19868;DHT22;10096;51.112;6.776;2023-07-02T01:36:45;17.60;1.00
19868;DHT22;10096;51.112;6.776;2023-07-02T01:39:12;17.70;1.00
19868;DHT22;10096;51.112;6.776;2023-07-02T01:41:44;17.90;1.00
19868;DHT22;10096;51.112;6.776;2023-07-02T01:44:12;17.90;1.00
19868;DHT22;10096;51.112;6.776;2023-07-02T01:46:39;17.60;1.00
19868;DHT22;10096;51.112;6.776;2023-07-02T01:49:09;17.90;1.00
19868;DHT22;10096;51.112;6.776;2023-07-02T01:51:39;17.50;1.00
19868;DHT22;10096;51.112;6.776;2023-07-02T01:54:08;17.60;1.00
19868;DHT22;10096;51.112;6.776;2023-07-02T01:56:35;17.60;1.00
19868;DHT22;10096;51.112;6.776;2023-07-02T01:59:02;17.50;1.00
19868;DHT22;10096;51.112;6.776;2023-07-02T02:01:29;17.40;1.00
19868;DHT22;10096;51.112;6.776;2023-07-02T02:03:58;17.40;1.00
19868;DHT22;10096;51.112;6.776;2023-07-02T02:06:26;17.40;1.00
19868;DHT22;10096;51.112;6.776;2023-07-02T02:08:53;17.10;1.00
19868;DHT22;10096;51.112;6.776;2023-07-02T02:11:21;17.20;1.00
19868;DHT22;10096;51.112;6.776;2023-07-02T02:13:49;17.00;1.00
19868;DHT22;10096;51.112;6.776;2023-07-02T02:16:16;16.90;1.00
19868;DHT22;10096;51.112;6.776;2023-07-02T02:18:44;16.80;1.00
19868;DHT22;10096;51.112;6.776;2023-07-02T02:21:11;16.80;1.00
19868;DHT22;10096;51.112;6.776;2023-07-02T02:23:38;16.80;1.00
19868;DHT22;10096;51.112;6.776;2023-07-02T02:26:08;16.80;1.00
19868;DHT22;10096;51.112;6.776;2023-07-02T02:28:39;16.90;1.00
19868;DHT22;10096;51.112;6.776;2023-07-02T02:31:06;16.90;1.00
19868;DHT22;10096;51.112;6.776;2023-07-02T02:33:38;17.00;1.00
19868;DHT22;10096;51.112;6.776;2023-07-02T02:36:06;17.00;1.00
19868;DHT22;10096;51.112;6.776;2023-07-02T02:38:38;17.00;1.00
19868;DHT22;10096;51.112;6.776;2023-07-02T02:41:05;16.90;1.00
19868;DHT22;10096;51.112;6.776;2023-07-02T02:43:34;16.80;1.00
19868;DHT22;10096;51.112;6.776;2023-07-02T02:46:03;16.80;1.00
19868;DHT22;10096;51.112;6.776;2023-07-02T02:48:30;16.70;1.00
19868;DHT22;10096;51.112;6.776;2023-07-02T02:50:57;16.70;1.00
19868;DHT22;10096;51.112;6.776;2023-07-02T02:53:32;16.80;1.00
19868;DHT22;10096;51.112;6.776;2023-07-02T02:55:59;16.80;1.00
19868;DHT22;10096;51.112;6.776;2023-07-02T02:58:26;16.80;1.00
19868;DHT22;10096;51.112;6.776;2023-07-02T03:00:54;17.00;1.00
19868;DHT22;10096;51.112;6.776;2023-07-02T03:03:25;16.70;1.00
19868;DHT22;10096;51.112;6.776;2023-07-02T03:05:52;16.90;1.00
19868;DHT22;10096;51.112;6.776;2023-07-02T03:08:19;16.70;1.00
19868;DHT22;10096;51.112;6.776;2023-07-02T03:10:50;16.60;1.00
19868;DHT22;10096;51.112;6.776;2023-07-02T03:13:17;16.70;1.00
19868;DHT22;10096;51.112;6.776;2023-07-02T03:15:45;16.70;1.00
19868;DHT22;10096;51.112;6.776;2023-07-02T03:18:12;16.70;1.00
19868;DHT22;10096;51.112;6.776;2023-07-02T03:20:42;16.80;1.00
19868;DHT22;10096;51.112;6.776;2023-07-02T03:23:09;16.70;1.00
19868;DHT22;10096;51.112;6.776;2023-07-02T03:25:41;17.00;1.00
19868;DHT22;10096;51.112;6.776;2023-07-02T03:28:08;16.90;1.00
19868;DHT22;10096;51.112;6.776;2023-07-02T03:30:36;16.90;1.00
19868;DHT22;10096;51.112;6.776;2023-07-02T03:33:03;16.90;1.00
19868;DHT22;10096;51.112;6.776;2023-07-02T03:35:32;16.90;1.00
19868;DHT22;10096;51.112;6.776;2023-07-02T03:38:13;16.70;1.00
19868;DHT22;10096;51.112;6.776;2023-07-02T03:40:43;17.00;1.00
19868;DHT22;10096;51.112;6.776;2023-07-02T03:43:10;17.10;1.00
19868;DHT22;10096;51.112;6.776;2023-07-02T03:45:37;17.00;1.00
19868;DHT22;10096;51.112;6.776;2023-07-02T03:48:04;17.10;1.00
19868;DHT22;10096;51.112;6.776;2023-07-02T03:50:32;17.10;1.00
19868;DHT22;10096;51.112;6.776;2023-07-02T03:52:59;17.30;1.00
19868;DHT22;10096;51.112;6.776;2023-07-02T03:55:27;17.10;1.00
19868;DHT22;10096;51.112;6.776;2023-07-02T03:57:57;17.20;1.00
19868;DHT22;10096;51.112;6.776;2023-07-02T04:00:24;17.20;1.00
19868;DHT22;10096;51.112;6.776;2023-07-02T04:02:51;17.30;1.00
19868;DHT22;10096;51.112;6.776;2023-07-02T04:05:24;17.30;1.00
19868;DHT22;10096;51.112;6.776;2023-07-02T04:07:52;17.30;1.00
19868;DHT22;10096;51.112;6.776;2023-07-02T04:10:19;17.30;1.00
19868;DHT22;10096;51.112;6.776;2023-07-02T04:12:48;17.30;1.00
19868;DHT22;10096;51.112;6.776;2023-07-02T04:15:16;17.20;1.00
19868;DHT22;10096;51.112;6.776;2023-07-02T04:17:43;17.50;1.00
19868;DHT22;10096;51.112;6.776;2023-07-02T04:20:11;17.50;1.00
19868;DHT22;10096;51.112;6.776;2023-07-02T04:22:38;17.60;1.00
19868;DHT22;10096;51.112;6.776;2023-07-02T04:25:06;17.50;1.00
19868;DHT22;10096;51.112;6.776;2023-07-02T04:27:34;17.60;1.00
19868;DHT22;10096;51.112;6.776;2023-07-02T04:30:03;17.60;1.00
19868;DHT22;10096;51.112;6.776;2023-07-02T04:32:31;17.70;1.00
19868;DHT22;10096;51.112;6.776;2023-07-02T04:34:58;17.80;1.00
19868;DHT22;10096;51.112;6.776;2023-07-02T04:37:28;17.80;1.00
19868;DHT22;10096;51.112;6.776;2023-07-02T04:39:55;17.90;1.00
19868;DHT22;10096;51.112;6.776;2023-07-02T04:42:25;18.00;1.00
19868;DHT22;10096;51.112;6.776;2023-07-02T04:44:53;18.10;1.00
19868;DHT22;10096;51.112;6.776;2023-07-02T04:47:22;18.10;1.00
19868;DHT22;10096;51.112;6.776;2023-07-02T04:49:49;18.20;1.00
19868;DHT22;10096;51.112;6.776;2023-07-02T04:52:16;18.10;1.00
19868;DHT22;10096;51.112;6.776;2023-07-02T04:54:43;18.20;1.00
19868;DHT22;10096;51.112;6.776;2023-07-02T04:57:10;18.40;1.00
19868;DHT22;10096;51.112;6.776;2023-07-02T04:59:38;18.50;1.00
19868;DHT22;10096;51.112;6.776;2023-07-02T05:02:06;18.70;1.00
19868;DHT22;10096;51.112;6.776;2023-07-02T05:04:35;19.30;1.00
19868;DHT22;10096;51.112;6.776;2023-07-02T05:07:06;19.20;1.00
19868;DHT22;10096;51.112;6.776;2023-07-02T05:09:33;19.00;1.00
19868;DHT22;10096;51.112;6.776;2023-07-02T05:12:00;19.20;1.00
19868;DHT22;10096;51.112;6.776;2023-07-02T05:14:28;18.80;1.00
19868;DHT22;10096;51.112;6.776;2023-07-02T05:16:55;18.80;1.00
19868;DHT22;10096;51.112;6.776;2023-07-02T05:19:22;18.70;1.00
19868;DHT22;10096;51.112;6.776;2023-07-02T05:21:51;18.70;1.00
19868;DHT22;10096;51.112;6.776;2023-07-02T05:24:18;18.60;1.00
19868;DHT22;10096;51.112;6.776;2023-07-02T05:26:45;19.00;1.00
19868;DHT22;10096;51.112;6.776;2023-07-02T05:29:13;19.60;1.00
19868;DHT22;10096;51.112;6.776;2023-07-02T05:31:41;20.30;99.90
19868;DHT22;10096;51.112;6.776;2023-07-02T05:34:09;20.70;99.90
19868;DHT22;10096;51.112;6.776;2023-07-02T05:36:36;20.70;99.90
19868;DHT22;10096;51.112;6.776;2023-07-02T05:39:05;20.90;99.90
19868;DHT22;10096;51.112;6.776;2023-07-02T05:41:32;20.70;99.90
19868;DHT22;10096;51.112;6.776;2023-07-02T05:44:00;20.90;99.90
19868;DHT22;10096;51.112;6.776;2023-07-02T05:46:27;21.10;99.90
19868;DHT22;10096;51.112;6.776;2023-07-02T05:48:55;21.40;99.90
19868;DHT22;10096;51.112;6.776;2023-07-02T05:51:23;21.40;99.90
19868;DHT22;10096;51.112;6.776;2023-07-02T05:53:51;21.50;99.90
19868;DHT22;10096;51.112;6.776;2023-07-02T05:56:19;22.50;99.90
19868;DHT22;10096;51.112;6.776;2023-07-02T05:58:48;23.50;99.90
19868;DHT22;10096;51.112;6.776;2023-07-02T06:01:18;23.30;99.90
19868;DHT22;10096;51.112;6.776;2023-07-02T06:03:45;22.70;99.90
19868;DHT22;10096;51.112;6.776;2023-07-02T06:06:15;22.50;99.90
19868;DHT22;10096;51.112;6.776;2023-07-02T06:08:45;22.00;99.90
19868;DHT22;10096;51.112;6.776;2023-07-02T06:11:12;21.90;99.90
19868;DHT22;10096;51.112;6.776;2023-07-02T06:13:41;21.60;99.90
19868;DHT22;10096;51.112;6.776;2023-07-02T06:16:08;21.40;99.90
19868;DHT22;10096;51.112;6.776;2023-07-02T06:18:36;21.10;99.90
19868;DHT22;10096;51.112;6.776;2023-07-02T06:21:03;21.10;99.90
19868;DHT22;10096;51.112;6.776;2023-07-02T06:23:39;21.10;99.90
19868;DHT22;10096;51.112;6.776;2023-07-02T06:26:07;21.40;99.90
19868;DHT22;10096;51.112;6.776;2023-07-02T06:28:34;22.10;99.90
19868;DHT22;10096;51.112;6.776;2023-07-02T06:31:03;22.30;99.90
19868;DHT22;10096;51.112;6.776;2023-07-02T06:33:30;21.90;99.90
19868;DHT22;10096;51.112;6.776;2023-07-02T06:35:59;22.20;99.90
19868;DHT22;10096;51.112;6.776;2023-07-02T06:38:26;23.20;99.90
19868;DHT22;10096;51.112;6.776;2023-07-02T06:40:53;23.60;99.90
19868;DHT22;10096;51.112;6.776;2023-07-02T06:43:23;23.60;99.90
19868;DHT22;10096;51.112;6.776;2023-07-02T06:45:50;23.20;99.90
19868;DHT22;10096;51.112;6.776;2023-07-02T06:48:19;22.90;99.90
19868;DHT22;10096;51.112;6.776;2023-07-02T06:50:47;22.80;99.90
19868;DHT22;10096;51.112;6.776;2023-07-02T06:53:14;22.90;99.90
19868;DHT22;10096;51.112;6.776;2023-07-02T06:55:42;23.90;99.90
19868;DHT22;10096;51.112;6.776;2023-07-02T06:58:09;23.90;99.90
19868;DHT22;10096;51.112;6.776;2023-07-02T07:00:36;23.90;99.90
19868;DHT22;10096;51.112;6.776;2023-07-02T07:03:04;24.30;99.90
19868;DHT22;10096;51.112;6.776;2023-07-02T07:05:33;24.50;99.90
19868;DHT22;10096;51.112;6.776;2023-07-02T07:08:00;24.50;99.90
19868;DHT22;10096;51.112;6.776;2023-07-02T07:10:30;24.40;99.90
19868;DHT22;10096;51.112;6.776;2023-07-02T07:13:00;25.30;99.90
19868;DHT22;10096;51.112;6.776;2023-07-02T07:15:32;26.60;99.90
19868;DHT22;10096;51.112;6.776;2023-07-02T07:18:00;27.60;99.90
19868;DHT22;10096;51.112;6.776;2023-07-02T07:20:28;27.60;99.90
19868;DHT22;10096;51.112;6.776;2023-07-02T07:22:57;27.60;99.90
19868;DHT22;10096;51.112;6.776;2023-07-02T07:25:24;27.50;99.90
19868;DHT22;10096;51.112;6.776;2023-07-02T07:27:52;28.10;99.90
19868;DHT22;10096;51.112;6.776;2023-07-02T07:30:19;29.10;99.90
19868;DHT22;10096;51.112;6.776;2023-07-02T07:32:49;29.10;99.90
19868;DHT22;10096;51.112;6.776;2023-07-02T07:35:16;29.50;99.90
19868;DHT22;10096;51.112;6.776;2023-07-02T07:37:44;29.20;99.90
19868;DHT22;10096;51.112;6.776;2023-07-02T07:40:14;29.10;99.90
19868;DHT22;10096;51.112;6.776;2023-07-02T07:42:41;29.00;99.90
19868;DHT22;10096;51.112;6.776;2023-07-02T07:45:10;28.70;99.90
19868;DHT22;10096;51.112;6.776;2023-07-02T07:47:42;28.40;99.90
19868;DHT22;10096;51.112;6.776;2023-07-02T07:50:10;27.20;99.90
19868;DHT22;10096;51.112;6.776;2023-07-02T07:52:38;26.30;99.90
19868;DHT22;10096;51.112;6.776;2023-07-02T07:55:06;25.60;99.90
19868;DHT22;10096;51.112;6.776;2023-07-02T07:57:36;25.40;99.90
19868;DHT22;10096;51.112;6.776;2023-07-02T08:00:07;25.20;99.90
19868;DHT22;10096;51.112;6.776;2023-07-02T08:02:36;25.20;99.90
19868;DHT22;10096;51.112;6.776;2023-07-02T08:05:04;25.20;99.90
19868;DHT22;10096;51.112;6.776;2023-07-02T08:07:32;25.40;99.90
19868;DHT22;10096;51.112;6.776;2023-07-02T08:09:59;25.40;99.90
19868;DHT22;10096;51.112;6.776;2023-07-02T08:12:28;25.50;99.90
19868;DHT22;10096;51.112;6.776;2023-07-02T08:14:58;25.70;99.90
19868;DHT22;10096;51.112;6.776;2023-07-02T08:17:25;26.40;99.90
19868;DHT22;10096;51.112;6.776;2023-07-02T08:19:52;26.60;99.90
19868;DHT22;10096;51.112;6.776;2023-07-02T08:22:20;26.50;99.90
19868;DHT22;10096;51.112;6.776;2023-07-02T08:24:47;26.70;99.90
19868;DHT22;10096;51.112;6.776;2023-07-02T08:27:18;26.40;99.90
19868;DHT22;10096;51.112;6.776;2023-07-02T08:29:46;26.40;99.90
19868;DHT22;10096;51.112;6.776;2023-07-02T08:32:15;26.30;99.90
19868;DHT22;10096;51.112;6.776;2023-07-02T08:34:44;26.40;99.90
19868;DHT22;10096;51.112;6.776;2023-07-02T08:37:14;27.10;99.90
19868;DHT22;10096;51.112;6.776;2023-07-02T08:39:41;26.30;99.90
19868;DHT22;10096;51.112;6.776;2023-07-02T08:42:09;26.10;99.90
19868;DHT22;10096;51.112;6.776;2023-07-02T08:44:38;25.10;99.90
19868;DHT22;10096;51.112;6.776;2023-07-02T08:47:09;24.90;99.90
19868;DHT22;10096;51.112;6.776;2023-07-02T08:49:38;24.90;99.90
19868;DHT22;10096;51.112;6.776;2023-07-02T08:52:06;24.60;99.90
19868;DHT22;10096;51.112;6.776;2023-07-02T08:54:36;24.50;99.90
19868;DHT22;10096;51.112;6.776;2023-07-02T08:57:05;25.10;99.90
19868;DHT22;10096;51.112;6.776;2023-07-02T08:59:33;25.10;99.90
19868;DHT22;10096;51.112;6.776;2023-07-02T09:02:03;24.90;99.90
19868;DHT22;10096;51.112;6.776;2023-07-02T09:04:32;24.70;99.90
19868;DHT22;10096;51.112;6.776;2023-07-02T09:07:06;24.30;99.90
19868;DHT22;10096;51.112;6.776;2023-07-02T09:09:44;24.20;99.90
19868;DHT22;10096;51.112;6.776;2023-07-02T09:12:22;24.00;99.90
19868;DHT22;10096;51.112;6.776;2023-07-02T09:14:55;23.70;99.90
19868;DHT22;10096;51.112;6.776;2023-07-02T09:17:27;23.70;99.90
19868;DHT22;10096;51.112;6.776;2023-07-02T09:19:56;23.50;99.90
19868;DHT22;10096;51.112;6.776;2023-07-02T09:22:26;23.40;99.90
19868;DHT22;10096;51.112;6.776;2023-07-02T09:24:54;23.30;99.90
19868;DHT22;10096;51.112;6.776;2023-07-02T09:27:33;23.30;99.90
19868;DHT22;10096;51.112;6.776;2023-07-02T09:30:06;23.30;99.90
19868;DHT22;10096;51.112;6.776;2023-07-02T09:32:34;23.40;99.90
19868;DHT22;10096;51.112;6.776;2023-07-02T09:35:03;23.50;99.90
19868;DHT22;10096;51.112;6.776;2023-07-02T09:37:35;23.50;99.90
19868;DHT22;10096;51.112;6.776;2023-07-02T09:40:08;23.50;99.90
19868;DHT22;10096;51.112;6.776;2023-07-02T09:42:37;24.10;99.90
19868;DHT22;10096;51.112;6.776;2023-07-02T09:45:08;24.10;99.90
19868;DHT22;10096;51.112;6.776;2023-07-02T09:47:44;23.60;99.90
19868;DHT22;10096;51.112;6.776;2023-07-02T09:50:17;23.40;99.90
19868;DHT22;10096;51.112;6.776;2023-07-02T09:53:01;23.00;99.90
19868;DHT22;10096;51.112;6.776;2023-07-02T09:55:33;23.00;99.90
19868;DHT22;10096;51.112;6.776;2023-07-02T09:58:02;23.20;99.90
19868;DHT22;10096;51.112;6.776;2023-07-02T10:00:30;23.40;99.90
19868;DHT22;10096;51.112;6.776;2023-07-02T10:03:00;24.00;99.90
19868;DHT22;10096;51.112;6.776;2023-07-02T10:05:29;24.30;99.90
19868;DHT22;10096;51.112;6.776;2023-07-02T10:08:16;24.70;99.90
19868;DHT22;10096;51.112;6.776;2023-07-02T10:10:44;25.40;99.90
19868;DHT22;10096;51.112;6.776;2023-07-02T10:13:11;25.40;99.90
19868;DHT22;10096;51.112;6.776;2023-07-02T10:15:39;25.50;99.90
19868;DHT22;10096;51.112;6.776;2023-07-02T10:18:07;24.80;99.90
19868;DHT22;10096;51.112;6.776;2023-07-02T10:20:39;24.70;99.90
19868;DHT22;10096;51.112;6.776;2023-07-02T10:23:14;24.40;99.90
19868;DHT22;10096;51.112;6.776;2023-07-02T10:25:46;24.10;99.90
19868;DHT22;10096;51.112;6.776;2023-07-02T10:28:16;24.40;99.90
19868;DHT22;10096;51.112;6.776;2023-07-02T10:30:47;24.40;99.90
19868;DHT22;10096;51.112;6.776;2023-07-02T10:33:15;24.40;99.90
19868;DHT22;10096;51.112;6.776;2023-07-02T10:35:45;24.40;99.90
19868;DHT22;10096;51.112;6.776;2023-07-02T10:38:18;24.80;99.90
19868;DHT22;10096;51.112;6.776;2023-07-02T10:40:58;24.90;99.90
19868;DHT22;10096;51.112;6.776;2023-07-02T10:43:29;24.70;99.90
19868;DHT22;10096;51.112;6.776;2023-07-02T10:45:59;24.00;99.90
19868;DHT22;10096;51.112;6.776;2023-07-02T10:48:31;23.50;99.90
19868;DHT22;10096;51.112;6.776;2023-07-02T10:51:01;23.00;99.90
19868;DHT22;10096;51.112;6.776;2023-07-02T10:54:04;22.40;99.90
19868;DHT22;10096;51.112;6.776;2023-07-02T10:56:32;22.60;99.90
19868;DHT22;10096;51.112;6.776;2023-07-02T10:59:01;22.80;99.90
19868;DHT22;10096;51.112;6.776;2023-07-02T11:01:30;22.90;99.90
19868;DHT22;10096;51.112;6.776;2023-07-02T11:04:03;23.30;99.90
19868;DHT22;10096;51.112;6.776;2023-07-02T11:06:32;23.60;99.90
19868;DHT22;10096;51.112;6.776;2023-07-02T11:09:01;23.70;99.90
19868;DHT22;10096;51.112;6.776;2023-07-02T11:11:32;23.90;99.90
19868;DHT22;10096;51.112;6.776;2023-07-02T11:14:01;23.80;99.90
19868;DHT22;10096;51.112;6.776;2023-07-02T11:16:29;24.00;99.90
19868;DHT22;10096;51.112;6.776;2023-07-02T11:19:07;23.90;99.90
19868;DHT22;10096;51.112;6.776;2023-07-02T11:21:37;23.50;99.90
19868;DHT22;10096;51.112;6.776;2023-07-02T11:24:08;23.30;99.90
19868;DHT22;10096;51.112;6.776;2023-07-02T11:26:42;23.20;99.90
19868;DHT22;10096;51.112;6.776;2023-07-02T11:29:11;23.30;99.90
19868;DHT22;10096;51.112;6.776;2023-07-02T11:31:40;23.00;99.90
19868;DHT22;10096;51.112;6.776;2023-07-02T11:34:13;22.80;99.90
19868;DHT22;10096;51.112;6.776;2023-07-02T11:36:43;23.20;99.90
19868;DHT22;10096;51.112;6.776;2023-07-02T11:39:12;23.40;99.90
19868;DHT22;10096;51.112;6.776;2023-07-02T11:41:42;23.60;99.90
19868;DHT22;10096;51.112;6.776;2023-07-02T11:44:16;24.10;99.90
19868;DHT22;10096;51.112;6.776;2023-07-02T11:46:44;24.70;99.90
19868;DHT22;10096;51.112;6.776;2023-07-02T11:49:15;25.20;99.90
19868;DHT22;10096;51.112;6.776;2023-07-02T11:51:48;24.90;99.90
19868;DHT22;10096;51.112;6.776;2023-07-02T11:54:17;25.30;99.90
19868;DHT22;10096;51.112;6.776;2023-07-02T11:56:44;25.30;99.90
19868;DHT22;10096;51.112;6.776;2023-07-02T11:59:12;24.90;99.90
19868;DHT22;10096;51.112;6.776;2023-07-02T12:01:40;24.80;99.90
19868;DHT22;10096;51.112;6.776;2023-07-02T12:04:09;25.00;99.90
19868;DHT22;10096;51.112;6.776;2023-07-02T12:06:37;25.30;99.90
19868;DHT22;10096;51.112;6.776;2023-07-02T12:09:04;25.60;99.90
19868;DHT22;10096;51.112;6.776;2023-07-02T12:11:33;25.70;99.90
19868;DHT22;10096;51.112;6.776;2023-07-02T12:14:01;25.90;99.90
19868;DHT22;10096;51.112;6.776;2023-07-02T12:16:31;25.90;99.90
19868;DHT22;10096;51.112;6.776;2023-07-02T12:18:59;26.10;99.90
19868;DHT22;10096;51.112;6.776;2023-07-02T12:21:26;26.00;99.90
19868;DHT22;10096;51.112;6.776;2023-07-02T12:23:54;25.90;99.90
19868;DHT22;10096;51.112;6.776;2023-07-02T12:26:26;25.20;99.90
19868;DHT22;10096;51.112;6.776;2023-07-02T12:29:08;25.30;99.90
19868;DHT22;10096;51.112;6.776;2023-07-02T12:31:36;25.30;99.90
19868;DHT22;10096;51.112;6.776;2023-07-02T12:34:03;25.50;99.90
19868;DHT22;10096;51.112;6.776;2023-07-02T12:36:30;25.50;99.90
19868;DHT22;10096;51.112;6.776;2023-07-02T12:38:57;25.30;99.90
19868;DHT22;10096;51.112;6.776;2023-07-02T12:41:25;25.10;99.90
19868;DHT22;10096;51.112;6.776;2023-07-02T12:43:52;24.90;99.90
19868;DHT22;10096;51.112;6.776;2023-07-02T12:46:21;24.80;99.90
19868;DHT22;10096;51.112;6.776;2023-07-02T12:48:49;25.20;99.90
19868;DHT22;10096;51.112;6.776;2023-07-02T12:51:19;25.70;99.90
19868;DHT22;10096;51.112;6.776;2023-07-02T12:53:50;25.80;99.90
19868;DHT22;10096;51.112;6.776;2023-07-02T12:56:18;26.30;99.90
19868;DHT22;10096;51.112;6.776;2023-07-02T12:58:49;26.40;99.90
19868;DHT22;10096;51.112;6.776;2023-07-02T13:01:18;26.60;99.90
19868;DHT22;10096;51.112;6.776;2023-07-02T13:03:49;26.60;99.90
19868;DHT22;10096;51.112;6.776;2023-07-02T13:06:16;26.50;99.90
19868;DHT22;10096;51.112;6.776;2023-07-02T13:08:44;26.40;99.90
19868;DHT22;10096;51.112;6.776;2023-07-02T13:11:13;26.30;99.90
19868;DHT22;10096;51.112;6.776;2023-07-02T13:13:41;26.30;99.90
19868;DHT22;10096;51.112;6.776;2023-07-02T13:16:09;26.40;99.90
19868;DHT22;10096;51.112;6.776;2023-07-02T13:18:37;26.40;99.90
19868;DHT22;10096;51.112;6.776;2023-07-02T13:21:07;26.30;99.90
19868;DHT22;10096;51.112;6.776;2023-07-02T13:23:34;26.00;99.90
19868;DHT22;10096;51.112;6.776;2023-07-02T13:26:03;26.10;99.90
19868;DHT22;10096;51.112;6.776;2023-07-02T13:28:30;25.80;99.90
19868;DHT22;10096;51.112;6.776;2023-07-02T13:31:00;25.90;99.90
19868;DHT22;10096;51.112;6.776;2023-07-02T13:33:27;25.90;99.90
19868;DHT22;10096;51.112;6.776;2023-07-02T13:35:57;25.20;99.90
19868;DHT22;10096;51.112;6.776;2023-07-02T13:38:27;25.20;99.90
19868;DHT22;10096;51.112;6.776;2023-07-02T13:40:56;25.30;99.90
19868;DHT22;10096;51.112;6.776;2023-07-02T13:43:23;25.10;99.90
19868;DHT22;10096;51.112;6.776;2023-07-02T13:45:51;25.10;99.90
19868;DHT22;10096;51.112;6.776;2023-07-02T13:48:21;25.30;99.90
19868;DHT22;10096;51.112;6.776;2023-07-02T13:50:50;25.40;99.90
19868;DHT22;10096;51.112;6.776;2023-07-02T13:53:19;25.50;99.90
19868;DHT22;10096;51.112;6.776;2023-07-02T13:55:49;25.50;99.90
19868;DHT22;10096;51.112;6.776;2023-07-02T13:58:19;25.20;99.90
19868;DHT22;10096;51.112;6.776;2023-07-02T14:00:51;25.50;99.90
19868;DHT22;10096;51.112;6.776;2023-07-02T14:03:19;25.40;99.90
19868;DHT22;10096;51.112;6.776;2023-07-02T14:05:50;25.70;99.90
19868;DHT22;10096;51.112;6.776;2023-07-02T14:08:17;25.70;99.90
19868;DHT22;10096;51.112;6.776;2023-07-02T14:10:45;25.40;99.90
19868;DHT22;10096;51.112;6.776;2023-07-02T14:13:12;25.10;99.90
19868;DHT22;10096;51.112;6.776;2023-07-02T14:15:43;24.90;99.90
19868;DHT22;10096;51.112;6.776;2023-07-02T14:18:14;25.00;99.90
19868;DHT22;10096;51.112;6.776;2023-07-02T14:20:42;25.40;99.90
19868;DHT22;10096;51.112;6.776;2023-07-02T14:23:12;25.50;99.90
19868;DHT22;10096;51.112;6.776;2023-07-02T14:25:40;25.50;99.90
19868;DHT22;10096;51.112;6.776;2023-07-02T14:28:08;25.30;99.90
19868;DHT22;10096;51.112;6.776;2023-07-02T14:30:36;25.10;99.90
19868;DHT22;10096;51.112;6.776;2023-07-02T14:33:05;25.00;99.90
19868;DHT22;10096;51.112;6.776;2023-07-02T14:35:34;25.30;99.90
19868;DHT22;10096;51.112;6.776;2023-07-02T14:38:01;25.40;99.90
19868;DHT22;10096;51.112;6.776;2023-07-02T14:40:31;25.60;99.90
19868;DHT22;10096;51.112;6.776;2023-07-02T14:42:58;25.50;99.90
19868;DHT22;10096;51.112;6.776;2023-07-02T14:45:26;25.50;99.90
19868;DHT22;10096;51.112;6.776;2023-07-02T14:47:53;25.40;99.90
19868;DHT22;10096;51.112;6.776;2023-07-02T14:50:25;25.40;99.90
19868;DHT22;10096;51.112;6.776;2023-07-02T14:52:55;25.30;99.90
19868;DHT22;10096;51.112;6.776;2023-07-02T14:55:24;25.20;99.90
19868;DHT22;10096;51.112;6.776;2023-07-02T14:57:55;25.20;99.90
19868;DHT22;10096;51.112;6.776;2023-07-02T15:00:22;25.20;99.90
19868;DHT22;10096;51.112;6.776;2023-07-02T15:02:50;25.00;99.90
19868;DHT22;10096;51.112;6.776;2023-07-02T15:05:20;25.00;99.90
19868;DHT22;10096;51.112;6.776;2023-07-02T15:07:47;25.00;99.90
19868;DHT22;10096;51.112;6.776;2023-07-02T15:10:18;25.10;99.90
19868;DHT22;10096;51.112;6.776;2023-07-02T15:12:45;25.10;99.90
19868;DHT22;10096;51.112;6.776;2023-07-02T15:15:13;25.30;99.90
19868;DHT22;10096;51.112;6.776;2023-07-02T15:17:41;25.60;99.90
19868;DHT22;10096;51.112;6.776;2023-07-02T15:20:12;25.90;99.90
19868;DHT22;10096;51.112;6.776;2023-07-02T15:22:43;26.10;99.90
19868;DHT22;10096;51.112;6.776;2023-07-02T15:25:10;26.00;99.90
19868;DHT22;10096;51.112;6.776;2023-07-02T15:27:39;25.90;99.90
19868;DHT22;10096;51.112;6.776;2023-07-02T15:30:07;25.70;99.90
19868;DHT22;10096;51.112;6.776;2023-07-02T15:32:37;25.40;99.90
19868;DHT22;10096;51.112;6.776;2023-07-02T15:35:07;25.50;99.90
19868;DHT22;10096;51.112;6.776;2023-07-02T15:37:34;25.50;99.90
19868;DHT22;10096;51.112;6.776;2023-07-02T15:40:05;25.70;99.90
19868;DHT22;10096;51.112;6.776;2023-07-02T15:42:35;25.60;99.90
19868;DHT22;10096;51.112;6.776;2023-07-02T15:45:07;25.60;99.90